createdAt,value
2018-11-05T00:00:36.078Z,12.63
2018-11-05T00:03:06.454Z,13.13
2018-11-05T00:05:35.933Z,12.90
2018-11-05T00:08:05.461Z,13.80
2018-11-05T00:10:34.834Z,13.17
2018-11-05T00:13:04.185Z,13.47
2018-11-05T00:15:33.715Z,13.90
2018-11-05T00:18:07.115Z,13.80
2018-11-05T00:20:36.467Z,13.50
2018-11-05T00:23:05.806Z,12.67
2018-11-05T00:25:35.161Z,14.70
2018-11-05T00:28:04.516Z,14.20
2018-11-05T00:30:33.941Z,14.87
2018-11-05T00:33:03.272Z,14.20
2018-11-05T00:35:32.746Z,13.27
2018-11-05T00:38:02.175Z,13.43
2018-11-05T00:40:31.489Z,13.60
2018-11-05T00:43:00.801Z,14.43
2018-11-05T00:45:30.227Z,14.73
2018-11-05T00:47:59.597Z,14.57
2018-11-05T00:50:29.137Z,14.33
2018-11-05T00:52:58.556Z,14.03
2018-11-05T00:55:27.946Z,14.50
2018-11-05T00:57:57.256Z,14.43
2018-11-05T01:00:26.592Z,15.07
2018-11-05T01:02:56.088Z,14.83
2018-11-05T01:05:25.662Z,14.30
2018-11-05T01:07:54.980Z,14.37
2018-11-05T01:10:24.420Z,14.93
2018-11-05T01:12:53.806Z,15.60
2018-11-05T01:15:23.165Z,14.93
2018-11-05T01:17:52.595Z,15.50
2018-11-05T01:20:21.946Z,15.93
2018-11-05T01:22:51.326Z,14.57
2018-11-05T01:25:20.815Z,14.37
2018-11-05T01:27:50.145Z,16.03
2018-11-05T01:30:19.438Z,15.90
2018-11-05T01:32:48.734Z,15.43
2018-11-05T01:35:18.086Z,15.73
2018-11-05T01:37:47.434Z,15.00
2018-11-05T01:40:16.772Z,16.30
2018-11-05T01:42:46.086Z,15.97
2018-11-05T01:45:15.724Z,16.80
2018-11-05T01:47:45.690Z,17.43
2018-11-05T01:50:16.235Z,16.90
2018-11-05T01:52:45.801Z,17.23
2018-11-05T01:55:15.234Z,17.40
2018-11-05T01:57:44.633Z,17.27
2018-11-05T02:00:16.065Z,16.30
2018-11-05T02:02:46.257Z,16.70
2018-11-05T02:05:15.677Z,17.53
2018-11-05T02:07:45.841Z,18.03
2018-11-05T02:10:18.326Z,18.27
2018-11-05T02:12:47.729Z,19.17
2018-11-05T02:15:17.203Z,17.90
2018-11-05T02:17:47.091Z,19.03
2018-11-05T02:20:17.221Z,20.07
2018-11-05T02:22:46.674Z,19.70
2018-11-05T02:25:16.076Z,18.77
2018-11-05T02:27:45.467Z,19.63
2018-11-05T02:30:16.949Z,20.37
2018-11-05T02:32:46.761Z,20.27
2018-11-05T02:35:17.114Z,21.03
2018-11-05T02:37:47.201Z,20.57
2018-11-05T02:40:19.350Z,21.30
2018-11-05T02:42:49.277Z,20.27
2018-11-05T02:45:19.624Z,20.20
2018-11-05T02:47:49.019Z,20.37
2018-11-05T02:50:18.407Z,21.40
2018-11-05T02:52:48.037Z,20.83
2018-11-05T02:55:17.386Z,20.53
2018-11-05T02:57:46.734Z,21.23
2018-11-05T03:00:19.238Z,21.07
2018-11-05T03:02:48.636Z,21.37
2018-11-05T03:05:19.277Z,21.53
2018-11-05T03:07:49.481Z,20.80
2018-11-05T03:10:18.853Z,22.13
2018-11-05T03:12:48.979Z,21.73
2018-11-05T03:15:20.441Z,21.10
2018-11-05T03:17:49.809Z,21.40
2018-11-05T03:20:19.177Z,22.30
2018-11-05T03:22:48.432Z,22.87
2018-11-05T03:25:17.771Z,21.90
2018-11-05T03:27:47.066Z,21.97
2018-11-05T03:30:17.823Z,22.23
2018-11-05T03:32:47.590Z,23.20
2018-11-05T03:35:16.972Z,23.53
2018-11-05T03:37:47.020Z,22.83
2018-11-05T03:40:16.515Z,23.13
2018-11-05T03:42:45.877Z,24.23
2018-11-05T03:45:16.500Z,23.37
2018-11-05T03:47:46.292Z,24.97
2018-11-05T03:50:18.786Z,22.97
2018-11-05T03:52:48.447Z,24.70
2018-11-05T03:55:18.387Z,25.43
2018-11-05T03:57:47.836Z,24.47
2018-11-05T04:00:18.198Z,25.23
2018-11-05T04:02:47.527Z,25.03
2018-11-05T04:05:16.954Z,25.60
2018-11-05T04:07:46.314Z,25.10
2018-11-05T04:10:15.612Z,25.43
2018-11-05T04:12:45.010Z,25.20
2018-11-05T04:15:14.404Z,25.40
2018-11-05T04:17:43.780Z,25.53
2018-11-05T04:20:14.540Z,25.57
2018-11-05T04:22:44.714Z,25.87
2018-11-05T04:25:14.144Z,26.77
2018-11-05T04:27:43.553Z,25.93
2018-11-05T04:30:15.071Z,26.13
2018-11-05T04:32:44.526Z,26.27
2018-11-05T04:35:14.257Z,27.37
2018-11-05T04:37:43.521Z,26.50
2018-11-05T04:40:12.906Z,26.10
2018-11-05T04:42:42.237Z,24.87
2018-11-05T04:45:13.052Z,26.47
2018-11-05T04:47:43.099Z,26.43
2018-11-05T04:50:13.541Z,26.23
2018-11-05T04:52:43.814Z,26.77
2018-11-05T04:55:13.172Z,27.50
2018-11-05T04:57:42.726Z,27.77
2018-11-05T05:00:15.151Z,26.87
2018-11-05T05:02:44.622Z,25.83
2018-11-05T05:05:15.206Z,27.60
2018-11-05T05:07:44.591Z,26.57
2018-11-05T05:10:13.979Z,27.70
2018-11-05T05:12:43.972Z,26.07
2018-11-05T05:15:13.526Z,25.73
2018-11-05T05:17:42.966Z,25.00
2018-11-05T05:20:14.286Z,27.67
2018-11-05T05:22:44.071Z,26.20
2018-11-05T05:25:13.560Z,26.40
2018-11-05T05:27:42.833Z,26.57
2018-11-05T05:30:18.201Z,26.60
2018-11-05T05:32:48.915Z,25.60
2018-11-05T05:35:19.217Z,27.03
2018-11-05T05:37:48.849Z,26.20
2018-11-05T05:40:18.477Z,26.53
2018-11-05T05:42:47.922Z,27.27
2018-11-05T05:45:17.321Z,25.53
2018-11-05T05:47:46.803Z,26.73
2018-11-05T05:50:17.386Z,26.30
2018-11-05T05:52:48.310Z,27.10
2018-11-05T05:55:17.732Z,26.33
2018-11-05T05:57:47.187Z,26.10
2018-11-05T06:00:18.702Z,26.27
2018-11-05T06:02:48.161Z,27.10
2018-11-05T06:05:19.731Z,27.43
2018-11-05T06:07:49.217Z,27.33
2018-11-05T06:10:18.633Z,26.90
2018-11-05T06:12:48.101Z,28.03
2018-11-05T06:15:17.930Z,26.27
2018-11-05T06:17:47.440Z,27.80
2018-11-05T06:20:18.442Z,27.67
2018-11-05T06:22:49.875Z,26.80
2018-11-05T06:25:19.370Z,26.30
2018-11-05T06:27:48.831Z,26.53
2018-11-05T06:30:21.027Z,27.90
2018-11-05T06:32:51.292Z,25.77
2018-11-05T06:35:21.386Z,26.40
2018-11-05T06:37:50.786Z,27.23
2018-11-05T06:40:21.102Z,25.63
2018-11-05T06:42:50.758Z,25.83
2018-11-05T06:45:21.695Z,24.63
2018-11-05T06:47:51.498Z,27.13
2018-11-05T06:50:25.111Z,26.93
2018-11-05T06:52:54.750Z,27.80
2018-11-05T06:55:24.066Z,27.83
2018-11-05T06:57:53.634Z,27.03
2018-11-05T07:00:24.241Z,27.57
2018-11-05T07:02:53.728Z,27.93
2018-11-05T07:05:23.302Z,26.77
2018-11-05T07:07:52.828Z,27.43
2018-11-05T07:10:22.351Z,27.33
2018-11-05T07:12:51.952Z,27.57
2018-11-05T07:15:21.674Z,27.90
2018-11-05T07:17:51.317Z,26.73
2018-11-05T07:20:21.855Z,27.20
2018-11-05T07:22:52.217Z,27.30
2018-11-05T07:25:21.739Z,27.67
2018-11-05T07:27:51.558Z,26.37
2018-11-05T07:30:22.194Z,27.53
2018-11-05T07:32:52.898Z,26.27
2018-11-05T07:35:22.461Z,26.47
2018-11-05T07:37:52.190Z,26.50
2018-11-05T07:40:21.700Z,27.70
2018-11-05T07:42:51.225Z,27.03
2018-11-05T07:45:22.033Z,26.97
2018-11-05T07:47:51.565Z,26.63
2018-11-05T07:50:22.028Z,28.03
2018-11-05T07:52:51.937Z,29.30
2018-11-05T07:55:21.546Z,28.10
2018-11-05T07:57:51.590Z,28.27
2018-11-05T08:00:26.562Z,27.23
2018-11-05T08:02:57.056Z,27.27
2018-11-05T08:05:26.589Z,27.47
2018-11-05T08:07:56.171Z,26.90
2018-11-05T08:10:25.701Z,28.10
2018-11-05T08:12:55.214Z,27.47
2018-11-05T08:15:25.889Z,26.97
2018-11-05T08:17:55.500Z,27.77
2018-11-05T08:20:25.073Z,30.07
2018-11-05T08:22:54.978Z,28.00
2018-11-05T08:25:24.489Z,26.77
2018-11-05T08:27:54.007Z,27.17
2018-11-05T08:30:24.858Z,28.37
2018-11-05T08:32:54.583Z,27.33
2018-11-05T08:35:24.150Z,27.83
2018-11-05T08:37:53.953Z,27.80
2018-11-05T08:40:25.962Z,28.07
2018-11-05T08:42:56.010Z,27.63
2018-11-05T08:45:26.800Z,27.17
2018-11-05T08:47:56.278Z,28.13
2018-11-05T08:50:26.235Z,26.93
2018-11-05T08:52:55.638Z,27.30
2018-11-05T08:55:26.402Z,27.07
2018-11-05T08:57:55.976Z,28.50
2018-11-05T09:00:30.862Z,26.63
2018-11-05T09:03:00.297Z,26.87
2018-11-05T09:05:29.822Z,27.53
2018-11-05T09:07:59.373Z,26.03
2018-11-05T09:10:29.070Z,26.87
2018-11-05T09:12:58.639Z,27.60
2018-11-05T09:15:28.164Z,27.27
2018-11-05T09:17:57.606Z,27.83
2018-11-05T09:20:27.150Z,26.70
2018-11-05T09:22:56.686Z,27.57
2018-11-05T09:25:26.367Z,31.43
2018-11-05T09:27:55.978Z,28.63
2018-11-05T09:30:25.937Z,26.73
2018-11-05T09:32:55.519Z,28.23
2018-11-05T09:35:25.094Z,27.03
2018-11-05T09:37:54.719Z,27.17
2018-11-05T09:40:24.862Z,27.77
2018-11-05T09:42:54.519Z,27.77
2018-11-05T09:45:28.182Z,27.33
2018-11-05T09:47:57.752Z,28.67
2018-11-05T09:50:27.343Z,27.03
2018-11-05T09:52:56.892Z,26.23
2018-11-05T09:55:27.377Z,26.60
2018-11-05T09:57:57.097Z,25.83
2018-11-05T10:00:27.699Z,26.30
2018-11-05T10:03:07.492Z,27.20
2018-11-05T10:05:36.957Z,26.23
2018-11-05T10:08:06.530Z,31.37
2018-11-05T10:10:36.116Z,27.47
2018-11-05T10:13:05.658Z,27.23
2018-11-05T10:15:35.253Z,27.23
2018-11-05T10:18:04.767Z,27.60
2018-11-05T10:20:34.357Z,26.67
2018-11-05T10:23:03.967Z,28.03
2018-11-05T10:25:33.584Z,27.20
2018-11-05T10:28:09.015Z,26.20
2018-11-05T10:30:38.618Z,27.73
2018-11-05T10:33:08.275Z,24.20
2018-11-05T10:35:42.845Z,25.43
2018-11-05T10:38:12.882Z,26.10
2018-11-05T10:40:42.653Z,26.80
2018-11-05T10:43:12.298Z,25.97
2018-11-05T10:45:41.904Z,25.53
2018-11-05T10:48:11.366Z,24.77
2018-11-05T10:50:41.042Z,24.37
2018-11-05T10:53:10.597Z,24.53
2018-11-05T10:55:40.146Z,23.87
2018-11-05T10:58:09.943Z,24.03
2018-11-05T11:00:44.870Z,25.27
2018-11-05T11:03:16.089Z,23.77
2018-11-05T11:05:45.713Z,23.03
2018-11-05T11:08:15.327Z,23.13
2018-11-05T11:10:45.046Z,23.13
2018-11-05T11:13:14.655Z,22.43
2018-11-05T11:15:44.257Z,21.87
2018-11-05T11:18:13.883Z,23.87
2018-11-05T11:20:43.515Z,21.70
2018-11-05T11:23:13.082Z,22.23
2018-11-05T11:25:42.656Z,22.80
2018-11-05T11:28:12.529Z,21.30
2018-11-05T11:30:42.132Z,21.90
2018-11-05T11:33:11.757Z,21.87
2018-11-05T11:35:41.345Z,20.87
2018-11-05T11:38:11.178Z,20.73
2018-11-05T11:40:40.762Z,21.17
2018-11-05T11:43:10.344Z,21.63
2018-11-05T11:45:39.970Z,20.60
2018-11-05T11:48:09.601Z,22.07
2018-11-05T11:50:39.081Z,21.30
2018-11-05T11:53:08.946Z,21.33
2018-11-05T11:55:38.486Z,20.70
2018-11-05T11:58:08.110Z,20.43
2018-11-05T12:00:37.775Z,20.07
2018-11-05T12:03:07.448Z,20.50
2018-11-05T12:05:36.956Z,20.77
2018-11-05T12:08:06.954Z,19.80
2018-11-05T12:10:36.488Z,18.17
2018-11-05T12:13:06.044Z,19.80
2018-11-05T12:15:35.663Z,19.33
2018-11-05T12:18:05.481Z,18.83
2018-11-05T12:20:35.013Z,18.67
2018-11-05T12:23:04.816Z,20.17
2018-11-05T12:25:34.394Z,19.50
2018-11-05T12:28:04.047Z,18.60
2018-11-05T12:30:33.714Z,19.60
2018-11-05T12:33:03.370Z,18.97
2018-11-05T12:35:33.040Z,20.73
2018-11-05T12:38:02.672Z,20.63
2018-11-05T12:40:32.358Z,19.60
2018-11-05T12:43:04.020Z,18.97
2018-11-05T12:45:33.526Z,19.03
2018-11-05T12:48:03.026Z,19.23
2018-11-05T12:50:32.864Z,19.93
2018-11-05T12:53:02.258Z,19.17
2018-11-05T12:55:31.810Z,17.40
2018-11-05T12:58:01.379Z,19.83
2018-11-05T13:00:31.006Z,20.40
2018-11-05T13:03:01.528Z,19.90
2018-11-05T13:05:32.023Z,18.87
2018-11-05T13:08:01.622Z,18.30
2018-11-05T13:10:31.201Z,18.73
2018-11-05T13:13:00.810Z,18.80
2018-11-05T13:15:30.351Z,19.07
2018-11-05T13:18:00.132Z,19.60
2018-11-05T13:20:29.719Z,18.40
2018-11-05T13:22:59.312Z,19.00
2018-11-05T13:25:28.884Z,18.00
2018-11-05T13:27:58.461Z,18.30
2018-11-05T13:30:28.048Z,18.73
2018-11-05T13:32:57.562Z,18.97
2018-11-05T13:35:27.081Z,22.37
2018-11-05T13:37:56.997Z,19.13
2018-11-05T13:40:26.338Z,18.30
2018-11-05T13:42:55.920Z,19.20
2018-11-05T13:45:25.620Z,18.93
2018-11-05T13:47:55.758Z,19.33
2018-11-05T13:50:25.078Z,19.63
2018-11-05T13:52:54.375Z,18.73
2018-11-05T13:55:23.959Z,17.87
2018-11-05T13:57:53.466Z,18.13
2018-11-05T14:00:22.986Z,18.50
2018-11-05T14:02:52.514Z,19.50
2018-11-05T14:05:22.046Z,19.40
2018-11-05T14:07:51.596Z,19.10
2018-11-05T14:10:22.214Z,18.73
2018-11-05T14:12:51.918Z,19.50
2018-11-05T14:15:21.537Z,17.93
2018-11-05T14:17:51.016Z,19.83
2018-11-05T14:20:21.152Z,19.70
2018-11-05T14:22:50.826Z,19.77
2018-11-05T14:25:21.009Z,20.03
2018-11-05T14:27:51.771Z,19.93
2018-11-05T14:30:21.095Z,21.13
2018-11-05T14:32:51.315Z,21.97
2018-11-05T14:35:20.803Z,22.30
2018-11-05T14:37:50.258Z,22.83
2018-11-05T14:40:20.149Z,24.23
2018-11-05T14:42:49.678Z,23.63
2018-11-05T14:45:20.263Z,23.67
2018-11-05T14:47:51.250Z,22.27
2018-11-05T14:50:22.103Z,23.13
2018-11-05T14:52:51.615Z,23.93
2018-11-05T14:55:21.399Z,23.17
2018-11-05T14:57:51.784Z,23.53
2018-11-05T15:00:24.281Z,25.33
2018-11-05T15:02:54.091Z,23.70
2018-11-05T15:05:23.635Z,24.17
2018-11-05T15:07:53.177Z,23.50
2018-11-05T15:10:24.771Z,25.50
2018-11-05T15:12:54.350Z,24.93
2018-11-05T15:15:24.179Z,24.80
2018-11-05T15:17:53.696Z,24.53
2018-11-05T15:20:24.052Z,24.93
2018-11-05T15:22:53.747Z,25.00
2018-11-05T15:25:23.328Z,24.67
2018-11-05T15:27:52.850Z,22.93
2018-11-05T15:30:23.303Z,25.43
2018-11-05T15:32:52.863Z,25.80
2018-11-05T15:35:22.331Z,24.17
2018-11-05T15:37:51.833Z,25.90
2018-11-05T15:40:22.117Z,27.27
2018-11-05T15:42:51.579Z,26.27
2018-11-05T15:45:21.936Z,25.17
2018-11-05T15:47:51.513Z,25.53
2018-11-05T15:50:21.763Z,26.23
2018-11-05T15:52:51.996Z,26.97
2018-11-05T15:55:21.097Z,27.90
2018-11-05T15:57:50.598Z,27.33
2018-11-05T16:00:22.344Z,24.43
2018-11-05T16:02:55.202Z,26.03
2018-11-05T16:05:24.681Z,28.33
2018-11-05T16:07:54.261Z,27.17
2018-11-05T16:10:23.952Z,27.50
2018-11-05T16:12:53.518Z,26.13
2018-11-05T16:15:23.202Z,27.40
2018-11-05T16:17:52.733Z,25.10
2018-11-05T16:20:23.195Z,26.77
2018-11-05T16:22:53.242Z,29.33
2018-11-05T16:25:22.979Z,29.73
2018-11-05T16:27:52.574Z,28.53
2018-11-05T16:30:22.601Z,28.53
2018-11-05T16:32:52.783Z,28.83
2018-11-05T16:35:22.315Z,29.37
2018-11-05T16:37:52.028Z,28.70
2018-11-05T16:40:21.442Z,28.60
2018-11-05T16:42:51.729Z,29.60
2018-11-05T16:45:22.119Z,28.83
2018-11-05T16:47:51.595Z,28.73
2018-11-05T16:50:25.286Z,25.97
2018-11-05T16:52:54.586Z,28.77
2018-11-05T16:55:25.336Z,26.23
2018-11-05T16:57:54.876Z,26.90
2018-11-05T17:00:27.681Z,25.90
2018-11-05T17:02:57.412Z,24.37
2018-11-05T17:05:28.792Z,25.23
2018-11-05T17:07:58.196Z,26.47
2018-11-05T17:10:28.682Z,25.07
2018-11-05T17:12:58.081Z,30.57
2018-11-05T17:15:27.493Z,28.70
2018-11-05T17:17:57.160Z,29.10
2018-11-05T17:20:26.599Z,32.47
2018-11-05T17:22:56.944Z,31.07
2018-11-05T17:25:26.426Z,29.93
2018-11-05T17:27:55.839Z,31.67
2018-11-05T17:30:25.209Z,34.23
2018-11-05T17:32:54.552Z,32.77
2018-11-05T17:35:24.114Z,32.90
2018-11-05T17:37:53.588Z,32.40
2018-11-05T17:40:23.560Z,29.93
2018-11-05T17:42:53.056Z,31.33
2018-11-05T17:45:22.427Z,31.90
2018-11-05T17:47:52.871Z,28.30
2018-11-05T17:50:22.902Z,28.03
2018-11-05T17:52:54.376Z,29.43
2018-11-05T17:55:23.881Z,27.17
2018-11-05T17:57:57.091Z,30.10
2018-11-05T18:00:26.641Z,31.87
2018-11-05T18:02:55.958Z,32.93
2018-11-05T18:05:25.640Z,32.40
2018-11-05T18:07:54.998Z,32.93
2018-11-05T18:10:25.511Z,34.10
2018-11-05T18:12:55.122Z,32.47
2018-11-05T18:15:24.472Z,32.47
2018-11-05T18:17:53.834Z,29.57
2018-11-05T18:20:23.160Z,32.23
2018-11-05T18:22:52.477Z,28.50
2018-11-05T18:25:21.860Z,29.60
2018-11-05T18:27:51.281Z,31.93
2018-11-05T18:30:20.689Z,32.50
2018-11-05T18:32:51.106Z,31.17
2018-11-05T18:35:20.546Z,31.97
2018-11-05T18:37:52.418Z,30.17
2018-11-05T18:40:22.691Z,28.10
2018-11-05T18:42:52.047Z,32.47
2018-11-05T18:45:23.460Z,48.17
2018-11-05T18:47:52.685Z,32.50
2018-11-05T18:50:22.130Z,29.10
2018-11-05T18:52:52.369Z,29.03
2018-11-05T18:55:21.742Z,31.63
2018-11-05T18:57:51.210Z,31.93
2018-11-05T19:00:22.821Z,29.43
2018-11-05T19:02:52.905Z,30.73
2018-11-05T19:05:23.269Z,31.83
2018-11-05T19:07:52.633Z,33.23
2018-11-05T19:10:22.095Z,31.30
2018-11-05T19:12:52.328Z,28.57
2018-11-05T19:15:21.784Z,33.83
2018-11-05T19:17:51.517Z,29.20
2018-11-05T19:20:20.780Z,30.63
2018-11-05T19:22:50.189Z,31.00
2018-11-05T19:25:19.535Z,30.47
2018-11-05T19:27:48.816Z,32.43
2018-11-05T19:30:21.968Z,33.73
2018-11-05T19:32:52.327Z,32.77
2018-11-05T19:35:21.652Z,32.97
2018-11-05T19:37:50.970Z,33.43
2018-11-05T19:40:20.660Z,31.57
2018-11-05T19:42:50.409Z,32.10
2018-11-05T19:45:22.145Z,32.53
2018-11-05T19:47:51.398Z,30.47
2018-11-05T19:50:22.287Z,28.30
2018-11-05T19:52:52.671Z,32.00
2018-11-05T19:55:22.223Z,31.33
2018-11-05T19:57:54.064Z,28.77
2018-11-05T20:00:27.342Z,28.73
2018-11-05T20:02:57.696Z,28.43
2018-11-05T20:05:30.016Z,26.97
2018-11-05T20:08:00.028Z,32.43
2018-11-05T20:10:29.372Z,33.83
2018-11-05T20:12:58.690Z,30.23
2018-11-05T20:15:28.042Z,33.23
2018-11-05T20:17:57.731Z,53.90
2018-11-05T20:20:27.551Z,34.27
2018-11-05T20:22:56.909Z,28.57
2018-11-05T20:25:26.255Z,27.13
2018-11-05T20:27:55.553Z,30.67
2018-11-05T20:30:25.943Z,29.07
2018-11-05T20:32:58.522Z,31.80
2018-11-05T20:35:28.024Z,26.10
2018-11-05T20:37:57.379Z,28.53
2018-11-05T20:40:26.755Z,26.87
2018-11-05T20:43:03.661Z,31.03
2018-11-05T20:45:33.049Z,31.73
2018-11-05T20:48:02.474Z,30.67
2018-11-05T20:50:31.773Z,32.10
2018-11-05T20:53:01.238Z,33.87
2018-11-05T20:55:32.595Z,33.67
2018-11-05T20:58:02.183Z,33.87
2018-11-05T21:00:31.455Z,34.90
2018-11-05T21:03:01.873Z,34.87
2018-11-05T21:05:32.304Z,30.07
2018-11-05T21:08:01.731Z,31.93
2018-11-05T21:10:31.149Z,30.13
2018-11-05T21:13:00.447Z,28.63
2018-11-05T21:15:29.757Z,28.97
2018-11-05T21:18:00.202Z,30.83
2018-11-05T21:20:29.626Z,30.73
2018-11-05T21:22:59.087Z,29.33
2018-11-05T21:25:38.300Z,30.03
2018-11-05T21:28:07.759Z,28.13
2018-11-05T21:30:36.991Z,27.33
2018-11-05T21:33:10.525Z,26.17
2018-11-05T21:35:41.125Z,27.23
2018-11-05T21:38:10.999Z,26.27
2018-11-05T21:43:18.422Z,27.13
2018-11-05T21:45:47.722Z,26.83
2018-11-05T21:48:17.101Z,26.80
2018-11-05T21:50:46.480Z,24.27
2018-11-05T21:53:15.955Z,28.03
2018-11-05T21:55:45.241Z,28.53
2018-11-05T21:58:14.584Z,28.67
2018-11-05T22:00:44.153Z,30.47
2018-11-05T22:03:17.682Z,24.80
2018-11-05T22:05:47.007Z,26.43
2018-11-05T22:08:16.345Z,23.13
2018-11-05T22:10:46.006Z,28.23
2018-11-05T22:13:15.333Z,27.10
2018-11-05T22:15:46.642Z,22.97
2018-11-05T22:18:16.998Z,22.90
2018-11-05T22:20:46.379Z,23.30
2018-11-05T22:23:16.028Z,25.07
2018-11-05T22:25:45.370Z,23.47
2018-11-05T22:28:14.703Z,23.57
2018-11-05T22:30:44.221Z,25.07
2018-11-05T22:33:13.505Z,26.83
2018-11-05T22:35:42.992Z,24.57
2018-11-05T22:38:12.647Z,26.17
2018-11-05T22:40:41.929Z,26.60
2018-11-05T22:43:11.245Z,25.73
2018-11-05T22:45:40.831Z,25.33
2018-11-05T22:48:10.199Z,24.37
2018-11-05T22:50:39.606Z,23.80
2018-11-05T22:53:08.909Z,22.63
2018-11-05T22:55:38.198Z,24.20
2018-11-05T22:58:07.717Z,23.40
2018-11-05T23:00:42.330Z,24.37
2018-11-05T23:03:16.838Z,21.37
2018-11-05T23:05:46.355Z,21.27
2018-11-05T23:08:15.634Z,21.53
2018-11-05T23:10:44.997Z,22.83
2018-11-05T23:13:14.303Z,23.67
2018-11-05T23:15:50.456Z,24.13
2018-11-05T23:18:19.857Z,22.63
2018-11-05T23:20:49.223Z,24.27
2018-11-05T23:23:18.533Z,25.17
2018-11-05T23:25:47.862Z,22.13
2018-11-05T23:28:17.470Z,24.97
2018-11-05T23:30:46.934Z,22.17
2018-11-05T23:33:16.221Z,23.53
2018-11-05T23:35:45.497Z,22.47
2018-11-05T23:38:14.861Z,22.83
2018-11-05T23:40:44.522Z,25.33
2018-11-05T23:43:18.960Z,24.50
2018-11-05T23:45:48.389Z,26.37
2018-11-05T23:48:17.752Z,28.37
2018-11-05T23:50:47.289Z,29.77
2018-11-05T23:53:16.573Z,28.20
2018-11-05T23:55:46.009Z,28.93
2018-11-05T23:58:15.328Z,28.33
